Time;durP1;ratioP1;P1;durP2;ratioP2;P2;SDS_P1;SDS_P2;PMS_P1;PMS_P2;Temp;Humidity;BMP_temperature;BMP_pressure;BME280_temperature;BME280_humidity;BME280_pressure;Samples;Min_cycle;Max_cycle;Signal;HPM_P1;HPM_P2
2023/07/20 00:01:40;;;;;;;;;;;;;;;20.38;53.25;99489.19;10326979;28;1063;-71
2023/07/20 00:06:40;;;;;;;;;;;;;;;20.37;53.32;99483.06;10326520;28;899;-71
2023/07/20 00:11:36;;;;;;;;;;;;;;;20.36;53.34;99478.72;10326389;28;878;-71
2023/07/20 00:16:32;;;;;;;;;;;;;;;20.35;53.22;99491.06;10327283;28;1952;-71
2023/07/20 00:21:28;;;;;;;;;;;;;;;20.35;53.21;99482.28;10327083;28;1052;-71
2023/07/20 00:26:24;;;;;;;;;;;;;;;20.34;53.39;99484.09;10326309;28;841;-72
2023/07/20 00:31:19;;;;;;;;;;;;;;;20.34;53.16;99486.72;10326034;28;1344;-71
2023/07/20 00:36:15;;;;;;;;;;;;;;;20.34;53.32;99486.72;10326667;28;1957;-71
2023/07/20 00:41:12;;;;;;;;;;;;;;;20.33;53.36;99477.09;10326681;28;866;-71
2023/07/20 00:46:08;;;;;;;;;;;;;;;20.32;53.20;99475.38;10326426;28;799;-71
2023/07/20 00:51:04;;;;;;;;;;;;;;;20.33;53.38;99481.50;10325445;28;1028;-71
2023/07/20 00:56:00;;;;;;;;;;;;;;;20.32;53.23;99469.22;10325592;28;1886;-71
2023/07/20 01:00:56;;;;;;;;;;;;;;;20.31;53.42;99478.97;10325568;28;777;-72
2023/07/20 01:05:52;;;;;;;;;;;;;;;20.32;53.39;99477.19;10326049;28;1027;-71
2023/07/20 01:10:48;;;;;;;;;;;;;;;20.30;53.19;99477.28;10325945;28;888;-72
2023/07/20 01:15:44;;;;;;;;;;;;;;;20.30;53.34;99474.63;10324701;28;1949;-71
2023/07/20 01:20:39;;;;;;;;;;;;;;;20.29;53.26;99472.91;10325275;28;984;-71
2023/07/20 01:25:35;;;;;;;;;;;;;;;20.30;53.38;99471.09;10325086;28;872;-71
2023/07/20 01:30:31;;;;;;;;;;;;;;;20.29;53.34;99472.06;10325387;28;1089;-71
2023/07/20 01:35:27;;;;;;;;;;;;;;;20.28;53.44;99468.56;10329087;28;1906;-71
2023/07/20 01:40:25;;;;;;;;;;;;;;;20.27;53.39;99461.56;10333597;28;818;-71
2023/07/20 01:45:20;;;;;;;;;;;;;;;20.27;53.37;99466.84;10332601;28;962;-71
2023/07/20 01:50:16;;;;;;;;;;;;;;;20.26;53.23;99461.66;10332495;28;821;-71
2023/07/20 01:55:12;;;;;;;;;;;;;;;20.26;53.38;99459.84;10333016;28;1909;-71
2023/07/20 02:00:09;;;;;;;;;;;;;;;20.26;53.24;99467.81;10332110;28;896;-72
2023/07/20 02:05:05;;;;;;;;;;;;;;;20.25;53.41;99460.81;10332530;28;847;-71
2023/07/20 02:10:01;;;;;;;;;;;;;;;20.24;53.49;99452.94;10332285;28;807;-71
2023/07/20 02:14:57;;;;;;;;;;;;;;;20.25;53.44;99452.00;10331419;28;1878;-71
2023/07/20 02:19:53;;;;;;;;;;;;;;;20.23;53.51;99448.59;10332014;28;821;-71
2023/07/20 02:24:50;;;;;;;;;;;;;;;20.24;53.40;99445.84;10331346;28;793;-72
2023/07/20 02:29:45;;;;;;;;;;;;;;;20.23;53.40;99454.75;10330793;28;1074;-71
2023/07/20 02:34:41;;;;;;;;;;;;;;;20.22;53.28;99445.09;10331898;28;1973;-71
2023/07/20 02:39:37;;;;;;;;;;;;;;;20.22;53.55;99445.09;10330785;28;917;-71
2023/07/20 02:44:33;;;;;;;;;;;;;;;20.21;53.35;99448.69;10330142;28;892;-71
2023/07/20 02:49:29;;;;;;;;;;;;;;;20.20;53.36;99444.34;10329216;28;908;-71
2023/07/20 02:54:25;;;;;;;;;;;;;;;20.20;53.32;99444.34;10330039;28;2040;-71
2023/07/20 02:59:21;;;;;;;;;;;;;;;20.19;53.53;99447.91;10329767;28;1050;-72
2023/07/20 03:04:17;;;;;;;;;;;;;;;20.18;53.50;99446.22;10329744;28;920;-71
2023/07/20 03:09:13;;;;;;;;;;;;;;;20.19;53.35;99452.38;10328934;28;1004;-71
2023/07/20 03:14:10;;;;;;;;;;;;;;;20.19;53.48;99460.31;10329642;28;1894;-71
2023/07/20 03:19:06;;;;;;;;;;;;;;;20.16;53.46;99458.69;10329676;28;906;-71
2023/07/20 03:24:02;;;;;;;;;;;;;;;20.16;53.52;99465.78;10329759;28;972;-71
2023/07/20 03:28:58;;;;;;;;;;;;;;;20.16;53.39;99481.66;10328198;28;817;-71
2023/07/20 03:33:53;;;;;;;;;;;;;;;20.14;53.48;99477.28;10328726;28;1977;-72
2023/07/20 03:38:50;;;;;;;;;;;;;;;20.15;53.54;99488.75;10327742;28;936;-71
2023/07/20 03:43:46;;;;;;;;;;;;;;;20.13;53.47;99480.88;10328072;28;772;-71
2023/07/20 03:48:42;;;;;;;;;;;;;;;20.13;53.47;99480.88;10328021;28;844;-71
2023/07/20 03:53:38;;;;;;;;;;;;;;;20.12;53.57;99483.59;10328225;28;1963;-72
2023/07/20 03:58:34;;;;;;;;;;;;;;;20.13;53.57;99485.31;10327716;28;864;-72
2023/07/20 04:03:30;;;;;;;;;;;;;;;20.12;53.53;99480.97;10327896;28;848;-72
2023/07/20 04:08:26;;;;;;;;;;;;;;;20.12;53.46;99483.59;10327775;28;904;-72
2023/07/20 04:13:22;;;;;;;;;;;;;;;20.10;53.49;99475.78;10327561;28;1894;-71
2023/07/20 04:18:18;;;;;;;;;;;;;;;20.10;53.42;99490.81;10326129;28;954;-71
2023/07/20 04:23:14;;;;;;;;;;;;;;;20.10;53.50;99485.50;10326612;28;860;-72
2023/07/20 04:28:09;;;;;;;;;;;;;;;20.09;53.48;99491.72;10326539;28;846;-72
2023/07/20 04:33:05;;;;;;;;;;;;;;;20.09;53.59;99475.84;10325594;28;1961;-72
2023/07/20 04:38:02;;;;;;;;;;;;;;;20.12;53.38;99494.19;10326115;28;1049;-72
2023/07/20 04:43:01;;;;;;;;;;;;;;;20.16;53.43;99501.03;10326613;28;814;-72
2023/07/20 04:47:56;;;;;;;;;;;;;;;20.19;53.26;99500.00;10325809;28;794;-72
2023/07/20 04:52:53;;;;;;;;;;;;;;;20.21;53.22;99501.63;10325591;28;1079;-73
2023/07/20 04:57:49;;;;;;;;;;;;;;;20.23;53.33;99498.91;10325587;28;1981;-72
2023/07/20 05:02:44;;;;;;;;;;;;;;;20.25;53.23;99495.22;10325412;28;1112;-72
2023/07/20 05:07:40;;;;;;;;;;;;;;;20.25;53.23;99500.50;10323504;28;1047;-72
2023/07/20 05:12:36;;;;;;;;;;;;;;;20.27;53.29;99503.91;10324741;28;799;-72
2023/07/20 05:17:32;;;;;;;;;;;;;;;20.27;53.13;99495.13;10325779;28;1960;-72
2023/07/20 05:22:28;;;;;;;;;;;;;;;20.29;53.38;99509.13;10325185;28;848;-73
2023/07/20 05:27:24;;;;;;;;;;;;;;;20.30;53.16;99516.09;10325091;28;965;-75
2023/07/20 05:32:20;;;;;;;;;;;;;;;20.30;53.24;99522.28;10325187;28;1384;-67
2023/07/20 05:37:16;;;;;;;;;;;;;;;20.33;53.18;99518.56;10324760;28;1918;-67
2023/07/20 05:42:12;;;;;;;;;;;;;;;20.33;53.29;99529.16;10324814;28;912;-67
2023/07/20 05:47:07;;;;;;;;;;;;;;;20.32;53.45;99532.75;10325412;28;912;-64
2023/07/20 05:52:03;;;;;;;;;;;;;;;20.30;53.39;99539.94;10324748;28;948;-64
2023/07/20 05:56:59;;;;;;;;;;;;;;;20.27;53.74;99538.31;10314221;28;1961;-64
2023/07/20 06:01:55;;;;;;;;;;;;;;;20.25;53.91;99542.84;10283901;28;1046;-64
2023/07/20 06:06:51;;;;;;;;;;;;;;;20.25;53.88;99553.44;10282973;28;849;-64
2023/07/20 06:11:47;;;;;;;;;;;;;;;20.25;54.18;99549.91;10283489;28;940;-68
2023/07/20 06:16:43;;;;;;;;;;;;;;;20.28;54.09;99558.56;10284034;28;1906;-67
2023/07/20 06:21:38;;;;;;;;;;;;;;;20.29;54.42;99568.19;10287527;28;868;-67
2023/07/20 06:26:40;;;;;;;;;;;;;;;20.31;54.60;99560.19;10290470;28;845;-67
2023/07/20 06:31:36;;;;;;;;;;;;;;;20.27;54.63;99572.72;10309785;28;1417;-72
2023/07/20 06:36:32;;;;;;;;;;;;;;;20.25;55.19;99574.63;10330730;28;1917;-67
2023/07/20 06:41:28;;;;;;;;;;;;;;;20.24;55.40;99572.88;10331457;28;825;-68
2023/07/20 06:46:24;;;;;;;;;;;;;;;20.27;55.63;99580.66;10330367;28;968;-68
2023/07/20 06:51:20;;;;;;;;;;;;;;;20.28;55.70;99574.44;10329670;28;771;-68
2023/07/20 06:56:16;;;;;;;;;;;;;;;20.29;55.69;99565.56;10329904;28;1959;-72
2023/07/20 07:01:12;;;;;;;;;;;;;;;20.34;55.74;99568.78;10330195;28;1032;-68
2023/07/20 07:06:07;;;;;;;;;;;;;;;20.34;55.72;99579.38;10329854;28;794;-68
2023/07/20 07:11:03;;;;;;;;;;;;;;;20.32;55.75;99586.53;10328931;28;853;-67
2023/07/20 07:15:59;;;;;;;;;;;;;;;20.31;56.05;99590.16;10329076;28;1953;-68
2023/07/20 07:20:55;;;;;;;;;;;;;;;20.31;56.19;99595.44;10329074;28;885;-69
2023/07/20 07:25:51;;;;;;;;;;;;;;;20.33;56.08;99592.69;10328869;28;778;-67
2023/07/20 07:30:47;;;;;;;;;;;;;;;20.33;56.17;99592.69;10328547;28;1310;-68
2023/07/20 07:35:43;;;;;;;;;;;;;;;20.29;55.95;99610.53;10327495;28;1971;-68
2023/07/20 07:40:39;;;;;;;;;;;;;;;20.27;56.39;99615.06;10328847;28;810;-68
2023/07/20 07:45:36;;;;;;;;;;;;;;;20.27;56.36;99614.22;10328772;28;857;-68
2023/07/20 07:50:32;;;;;;;;;;;;;;;20.27;56.35;99619.50;10327839;28;816;-68
2023/07/20 07:55:28;;;;;;;;;;;;;;;20.26;56.29;99620.47;10327501;28;1889;-68
2023/07/20 08:00:23;;;;;;;;;;;;;;;20.24;56.46;99615.25;10327689;28;878;-68
2023/07/20 08:05:19;;;;;;;;;;;;;;;20.27;56.45;99623.00;10327271;28;782;-67
2023/07/20 08:10:15;;;;;;;;;;;;;;;20.30;56.07;99625.50;10326997;28;834;-67
2023/07/20 08:15:12;;;;;;;;;;;;;;;20.34;56.04;99631.47;10327170;28;1898;-67
2023/07/20 08:20:11;;;;;;;;;;;;;;;20.32;55.95;99634.19;10326440;28;987;-67
2023/07/20 08:25:07;;;;;;;;;;;;;;;20.35;55.90;99639.31;10327316;28;880;-67
2023/07/20 08:30:04;;;;;;;;;;;;;;;20.36;55.97;99632.25;10326181;28;1283;-67
2023/07/20 08:35:00;;;;;;;;;;;;;;;20.34;56.08;99640.25;10327195;28;1978;-67
2023/07/20 08:39:56;;;;;;;;;;;;;;;20.34;55.80;99636.78;10326034;28;863;-67
2023/07/20 08:44:52;;;;;;;;;;;;;;;20.43;55.88;99640.69;10327162;28;964;-67
2023/07/20 08:49:47;;;;;;;;;;;;;;;20.44;55.63;99642.41;10325856;28;772;-67
2023/07/20 08:54:43;;;;;;;;;;;;;;;20.44;55.57;99645.91;10308354;28;1906;-69
2023/07/20 08:59:39;;;;;;;;;;;;;;;20.43;55.60;99652.13;10325655;28;977;-66
2023/07/20 09:04:36;;;;;;;;;;;;;;;20.41;55.76;99655.78;10325494;28;830;-67
2023/07/20 09:09:31;;;;;;;;;;;;;;;20.42;55.55;99654.88;10325620;28;835;-67
2023/07/20 09:14:27;;;;;;;;;;;;;;;20.44;55.42;99650.34;10325113;28;1898;-67
2023/07/20 09:19:23;;;;;;;;;;;;;;;20.47;55.28;99647.53;10324630;28;1035;-67
2023/07/20 09:24:19;;;;;;;;;;;;;;;20.48;55.30;99647.41;10307463;28;711;-67
2023/07/20 09:29:15;;;;;;;;;;;;;;;20.47;55.34;99658.13;10325106;28;889;-67
2023/07/20 09:34:11;;;;;;;;;;;;;;;20.53;55.18;99648.03;10326640;28;1906;-67
2023/07/20 09:39:07;;;;;;;;;;;;;;;20.54;55.33;99646.25;10324872;28;822;-67
2023/07/20 09:44:02;;;;;;;;;;;;;;;20.47;55.23;99635.13;10324754;28;853;-67
2023/07/20 09:48:58;;;;;;;;;;;;;;;20.49;55.15;99632.41;10324740;28;786;-67
2023/07/20 09:53:54;;;;;;;;;;;;;;;20.48;55.30;99644.78;10325089;28;1949;-67
2023/07/20 09:58:50;;;;;;;;;;;;;;;20.48;55.33;99641.28;10332760;28;775;-67
2023/07/20 10:03:46;;;;;;;;;;;;;;;20.48;55.41;99639.47;10332004;28;991;-67
2023/07/20 10:08:42;;;;;;;;;;;;;;;20.50;55.42;99639.41;10332094;28;869;-67
2023/07/20 10:13:38;;;;;;;;;;;;;;;20.45;55.34;99641.47;10331699;28;1955;-67
2023/07/20 10:18:34;;;;;;;;;;;;;;;20.41;55.65;99643.44;10331445;28;915;-67
2023/07/20 10:23:30;;;;;;;;;;;;;;;20.47;55.49;99640.44;10332587;28;833;-67
2023/07/20 10:28:26;;;;;;;;;;;;;;;20.47;55.34;99643.09;10331020;28;960;-67
2023/07/20 10:33:22;;;;;;;;;;;;;;;20.48;55.44;99638.63;10331751;28;1918;-67
2023/07/20 10:38:18;;;;;;;;;;;;;;;20.53;55.22;99626.84;10330848;28;803;-64
2023/07/20 10:43:14;;;;;;;;;;;;;;;20.56;55.14;99616.09;10330665;28;853;-64
2023/07/20 10:48:09;;;;;;;;;;;;;;;20.54;55.18;99622.41;10330565;28;766;-65
2023/07/20 10:53:05;;;;;;;;;;;;;;;20.50;55.29;99632.31;10330903;28;833;-65
2023/07/20 10:58:01;;;;;;;;;;;;;;;20.48;55.71;99617.44;10330533;28;1890;-71
2023/07/20 11:02:57;;;;;;;;;;;;;;;20.51;55.59;99617.28;10330702;28;798;-71
2023/07/20 11:07:53;;;;;;;;;;;;;;;20.48;55.48;99628.03;10328500;28;776;-72
2023/07/20 11:12:49;;;;;;;;;;;;;;;20.47;55.57;99621.91;10329721;28;1095;-71
2023/07/20 11:17:45;;;;;;;;;;;;;;;20.54;55.13;99619.78;10330006;28;1893;-71
2023/07/20 11:22:41;;;;;;;;;;;;;;;20.54;55.12;99611.81;10328496;28;915;-71
2023/07/20 11:27:37;;;;;;;;;;;;;;;20.46;55.16;99612.25;10328816;28;930;-71
2023/07/20 11:32:33;;;;;;;;;;;;;;;20.54;55.39;99601.25;10328126;28;1273;-65
2023/07/20 11:37:29;;;;;;;;;;;;;;;20.48;55.86;99601.56;10328484;28;1918;-70
2023/07/20 11:42:25;;;;;;;;;;;;;;;20.50;55.52;99605.00;10328282;28;852;-64
2023/07/20 11:47:21;;;;;;;;;;;;;;;20.52;55.71;99596.00;10327383;28;1145;-72
2023/07/20 11:52:17;;;;;;;;;;;;;;;20.59;55.65;99593.88;10326803;28;818;-73
2023/07/20 11:57:13;;;;;;;;;;;;;;;20.59;55.35;99588.59;10327587;28;1949;-73
2023/07/20 12:02:08;;;;;;;;;;;;;;;20.56;55.42;99594.06;10327492;28;1025;-71
2023/07/20 12:07:04;;;;;;;;;;;;;;;20.56;55.41;99588.78;10327867;28;826;-71
2023/07/20 12:12:00;;;;;;;;;;;;;;;20.55;55.36;99595.03;10326456;28;996;-74
2023/07/20 12:16:56;;;;;;;;;;;;;;;20.54;55.44;99591.53;10327649;28;1902;-72
2023/07/20 12:21:52;;;;;;;;;;;;;;;20.53;55.45;99594.22;10327064;28;841;-72
2023/07/20 12:26:48;;;;;;;;;;;;;;;20.52;55.26;99597.81;10325992;28;999;-71
2023/07/20 12:31:44;;;;;;;;;;;;;;;20.56;55.07;99588.78;10325079;28;1405;-73
2023/07/20 12:36:39;;;;;;;;;;;;;;;20.57;54.93;99582.56;10325287;28;1913;-72
2023/07/20 12:41:35;;;;;;;;;;;;;;;20.58;55.01;99582.44;10326222;28;765;-72
2023/07/20 12:46:35;;;;;;;;;;;;;;;20.56;55.02;99578.19;10325046;28;1096;-73
2023/07/20 12:51:30;;;;;;;;;;;;;;;20.56;54.88;99567.59;10325925;28;862;-72
2023/07/20 12:56:26;;;;;;;;;;;;;;;20.61;54.79;99569.97;10326113;28;1961;-72
2023/07/20 13:01:24;;;;;;;;;;;;;;;20.57;54.81;99564.88;10325790;28;837;-72
2023/07/20 13:06:20;;;;;;;;;;;;;;;20.69;54.55;99562.44;10325346;28;874;-72
2023/07/20 13:11:16;;;;;;;;;;;;;;;20.69;54.58;99563.28;10325375;28;774;-72
2023/07/20 13:16:11;;;;;;;;;;;;;;;20.68;54.60;99553.66;10325594;28;1897;-72
2023/07/20 13:21:10;;;;;;;;;;;;;;;20.75;54.40;99557.66;10325586;28;889;-72
2023/07/20 13:26:08;;;;;;;;;;;;;;;20.69;54.47;99552.69;10324689;28;875;-72
2023/07/20 13:31:04;;;;;;;;;;;;;;;20.69;54.60;99551.84;10328013;28;1202;-72
2023/07/20 13:35:59;;;;;;;;;;;;;;;20.70;54.57;99548.28;10332751;28;1957;-72
2023/07/20 13:40:55;;;;;;;;;;;;;;;20.69;54.59;99557.13;10333969;28;938;-71
2023/07/20 13:45:51;;;;;;;;;;;;;;;20.68;54.50;99558.09;10332652;28;795;-71
2023/07/20 13:50:47;;;;;;;;;;;;;;;20.69;54.50;99541.25;10332675;28;773;-71
2023/07/20 13:55:43;;;;;;;;;;;;;;;20.70;54.50;99546.47;10332673;28;1901;-71
2023/07/20 14:00:39;;;;;;;;;;;;;;;20.71;54.62;99542.88;10331618;28;888;-71
2023/07/20 14:05:35;;;;;;;;;;;;;;;20.86;54.06;99532.31;10331528;28;1216;-71
2023/07/20 14:10:30;;;;;;;;;;;;;;;20.90;54.04;99534.69;10331863;28;952;-72
2023/07/20 14:15:26;;;;;;;;;;;;;;;20.76;54.39;99529.34;10331710;28;1894;-71
2023/07/20 14:20:22;;;;;;;;;;;;;;;20.69;54.44;99526.22;10331510;28;771;-69
2023/07/20 14:25:18;;;;;;;;;;;;;;;20.66;54.46;99520.25;10331110;28;880;-73
2023/07/20 14:30:14;;;;;;;;;;;;;;;20.64;54.56;99528.28;10331674;28;1160;-71
2023/07/20 14:35:10;;;;;;;;;;;;;;;20.62;54.37;99524.88;10330731;28;1977;-71
2023/07/20 14:40:06;;;;;;;;;;;;;;;20.61;54.51;99523.16;10330799;28;821;-71
2023/07/20 14:45:02;;;;;;;;;;;;;;;20.60;54.52;99521.47;10330405;28;930;-72
2023/07/20 14:49:58;;;;;;;;;;;;;;;20.60;54.38;99516.16;10330694;28;815;-70
2023/07/20 14:54:54;;;;;;;;;;;;;;;20.62;54.25;99518.72;10330237;28;1956;-69
2023/07/20 14:59:50;;;;;;;;;;;;;;;20.70;54.09;99511.19;10330821;28;1035;-69
2023/07/20 15:04:46;;;;;;;;;;;;;;;20.93;53.54;99517.75;10313450;28;846;-71
2023/07/20 15:09:42;;;;;;;;;;;;;;;20.97;53.40;99511.31;10329944;28;1053;-71
2023/07/20 15:14:37;;;;;;;;;;;;;;;21.03;53.33;99505.66;10329692;28;1945;-71
2023/07/20 15:19:34;;;;;;;;;;;;;;;21.01;53.52;99504.88;10329733;28;865;-71
2023/07/20 15:24:30;;;;;;;;;;;;;;;20.95;53.60;99503.47;10328817;28;954;-71
2023/07/20 15:29:26;;;;;;;;;;;;;;;20.90;53.57;99494.94;10328597;28;895;-73
2023/07/20 15:34:22;;;;;;;;;;;;;;;20.86;53.78;99501.38;10329291;28;1910;-67
2023/07/20 15:39:17;;;;;;;;;;;;;;;20.85;53.88;99498.81;10327819;28;1051;-67
2023/07/20 15:44:14;;;;;;;;;;;;;;;20.93;53.60;99493.91;10327325;28;917;-68
2023/07/20 15:49:09;;;;;;;;;;;;;;;21.02;53.23;99478.31;10327894;28;875;-67
2023/07/20 15:54:10;;;;;;;;;;;;;;;21.14;53.02;99478.50;10327787;28;1898;-67
2023/07/20 15:59:05;;;;;;;;;;;;;;;21.19;52.99;99471.94;10328949;28;993;-68
2023/07/20 16:04:07;;;;;;;;;;;;;;;21.30;52.78;99468.66;10327565;28;786;-67
2023/07/20 16:09:06;;;;;;;;;;;;;;;21.36;52.67;99473.56;10327456;28;889;-68
2023/07/20 16:14:02;;;;;;;;;;;;;;;21.24;52.78;99469.88;10326438;28;1894;-68
2023/07/20 16:18:58;;;;;;;;;;;;;;;21.13;53.03;99467.03;10328097;28;897;-68
2023/07/20 16:23:54;;;;;;;;;;;;;;;20.97;53.66;99467.13;10326749;28;818;-66
2023/07/20 16:28:50;;;;;;;;;;;;;;;20.88;53.98;99470.34;10326868;28;810;-65
2023/07/20 16:33:46;;;;;;;;;;;;;;;20.85;54.29;99456.44;10325258;28;1901;-65
2023/07/20 16:38:42;;;;;;;;;;;;;;;20.79;54.40;99447.91;10326232;28;959;-65
2023/07/20 16:43:38;;;;;;;;;;;;;;;20.77;54.41;99446.28;10326592;28;781;-65
2023/07/20 16:48:34;;;;;;;;;;;;;;;20.76;54.35;99442.78;10326636;28;863;-65
2023/07/20 16:53:30;;;;;;;;;;;;;;;20.74;54.49;99442.03;10325905;28;1890;-65
2023/07/20 16:58:26;;;;;;;;;;;;;;;20.73;54.40;99434.19;10326376;28;861;-65
2023/07/20 17:03:22;;;;;;;;;;;;;;;20.71;54.57;99428.97;10325799;28;837;-74
2023/07/20 17:08:17;;;;;;;;;;;;;;;20.72;54.63;99421.88;10324151;28;860;-65
2023/07/20 17:13:14;;;;;;;;;;;;;;;20.71;54.75;99421.03;10326087;28;877;-65
2023/07/20 17:18:10;;;;;;;;;;;;;;;20.72;54.77;99424.53;10325582;28;1959;-65
2023/07/20 17:23:06;;;;;;;;;;;;;;;20.70;54.60;99416.69;10326469;28;912;-65
2023/07/20 17:28:02;;;;;;;;;;;;;;;20.70;54.65;99422.00;10325196;28;786;-66
2023/07/20 17:32:57;;;;;;;;;;;;;;;20.70;54.96;99413.19;10325335;28;1314;-65
2023/07/20 17:37:53;;;;;;;;;;;;;;;20.68;54.74;99405.34;10324952;28;1910;-65
2023/07/20 17:42:49;;;;;;;;;;;;;;;20.69;54.91;99399.06;10325411;28;855;-65
2023/07/20 17:47:45;;;;;;;;;;;;;;;20.69;54.84;99400.88;10325326;28;950;-61
2023/07/20 17:52:41;;;;;;;;;;;;;;;20.69;54.80;99398.22;10324989;28;904;-65
2023/07/20 17:57:37;;;;;;;;;;;;;;;20.66;54.75;99404.56;10323984;28;1902;-65
2023/07/20 18:02:33;;;;;;;;;;;;;;;20.68;54.87;99407.13;10325136;28;941;-65
2023/07/20 18:07:29;;;;;;;;;;;;;;;20.68;54.75;99401.84;10325011;28;955;-65
2023/07/20 18:12:25;;;;;;;;;;;;;;;20.66;54.72;99399.28;10324838;28;782;-65
2023/07/20 18:17:21;;;;;;;;;;;;;;;20.66;54.83;99393.13;10328122;28;1952;-65
2023/07/20 18:22:17;;;;;;;;;;;;;;;20.66;54.89;99387.84;10330971;28;916;-65
2023/07/20 18:27:13;;;;;;;;;;;;;;;20.65;54.76;99392.28;10331358;28;817;-65
2023/07/20 18:32:08;;;;;;;;;;;;;;;20.65;54.84;99386.13;10331692;28;1346;-65
2023/07/20 18:37:04;;;;;;;;;;;;;;;20.65;54.85;99391.44;10331527;28;1906;-65
2023/07/20 18:42:00;;;;;;;;;;;;;;;20.65;55.03;99381.69;10330267;28;942;-66
2023/07/20 18:46:56;;;;;;;;;;;;;;;20.64;55.03;99385.25;10330873;28;791;-65
2023/07/20 18:51:52;;;;;;;;;;;;;;;20.64;54.98;99382.63;10330484;28;823;-65
2023/07/20 18:56:48;;;;;;;;;;;;;;;20.64;54.83;99379.97;10330847;28;1890;-65
2023/07/20 19:01:46;;;;;;;;;;;;;;;20.64;54.89;99379.13;10330075;28;1072;-66
2023/07/20 19:06:41;;;;;;;;;;;;;;;20.64;54.98;99400.31;10330235;28;842;-64
2023/07/20 19:11:38;;;;;;;;;;;;;;;20.63;54.92;99396.81;10330465;28;770;-64
2023/07/20 19:16:34;;;;;;;;;;;;;;;20.62;54.90;99405.72;10329547;28;1957;-65
2023/07/20 19:21:29;;;;;;;;;;;;;;;20.63;55.05;99404.75;10328764;28;853;-65
2023/07/20 19:26:25;;;;;;;;;;;;;;;20.62;54.90;99399.53;10329167;28;913;-65
2023/07/20 19:31:21;;;;;;;;;;;;;;;20.63;54.98;99382.72;10328116;28;1217;-65
2023/07/20 19:36:19;;;;;;;;;;;;;;;20.61;54.99;99385.47;10329239;28;1918;-65
2023/07/20 19:41:15;;;;;;;;;;;;;;;20.62;55.00;99402.19;10329122;28;872;-65
2023/07/20 19:46:12;;;;;;;;;;;;;;;20.62;55.05;99397.78;10328350;28;782;-65
2023/07/20 19:51:08;;;;;;;;;;;;;;;20.63;55.23;99396.81;10328070;28;850;-65
2023/07/20 19:56:07;;;;;;;;;;;;;;;20.60;55.11;99410.25;10327841;28;1897;-65
2023/07/20 20:01:03;;;;;;;;;;;;;;;20.61;54.87;99416.38;10328411;28;859;-65
2023/07/20 20:05:59;;;;;;;;;;;;;;;20.60;55.07;99410.25;10328176;28;853;-65
2023/07/20 20:10:54;;;;;;;;;;;;;;;20.60;55.21;99410.25;10328442;28;762;-65
2023/07/20 20:15:51;;;;;;;;;;;;;;;20.60;55.11;99410.25;10328025;28;1957;-65
2023/07/20 20:20:46;;;;;;;;;;;;;;;20.59;55.19;99408.53;10327672;28;896;-65
2023/07/20 20:25:42;;;;;;;;;;;;;;;20.60;55.12;99406.75;10327003;28;866;-65
2023/07/20 20:30:39;;;;;;;;;;;;;;;20.59;55.15;99413.81;10326821;28;1500;-65
2023/07/20 20:35:35;;;;;;;;;;;;;;;20.60;55.28;99410.25;10326383;28;1981;-65
2023/07/20 20:40:30;;;;;;;;;;;;;;;20.60;55.17;99414.69;10326664;28;798;-65
2023/07/20 20:45:26;;;;;;;;;;;;;;;20.58;55.25;99402.38;10327098;28;892;-65
2023/07/20 20:50:22;;;;;;;;;;;;;;;20.58;55.28;99402.38;10326640;28;885;-65
2023/07/20 20:55:18;;;;;;;;;;;;;;;20.58;55.14;99401.53;10326352;28;1894;-65
2023/07/20 21:00:14;;;;;;;;;;;;;;;20.58;55.20;99406.84;10326009;28;961;-65
2023/07/20 21:05:10;;;;;;;;;;;;;;;20.57;55.32;99394.56;10325775;28;865;-65
2023/07/20 21:10:06;;;;;;;;;;;;;;;20.56;55.13;99391.03;10325475;28;857;-65
2023/07/20 21:15:05;;;;;;;;;;;;;;;20.56;55.29;99383.09;10326000;28;1898;-65
2023/07/20 21:20:01;;;;;;;;;;;;;;;20.57;55.09;99378.66;10325303;28;887;-65
2023/07/20 21:24:57;;;;;;;;;;;;;;;20.56;55.34;99372.50;10325901;28;778;-65
2023/07/20 21:29:53;;;;;;;;;;;;;;;20.55;55.14;99370.78;10325732;28;1180;-65
2023/07/20 21:34:49;;;;;;;;;;;;;;;20.56;55.25;99369.00;10325034;28;1914;-65
2023/07/20 21:39:45;;;;;;;;;;;;;;;20.56;55.13;99369.00;10324905;28;867;-65
2023/07/20 21:44:41;;;;;;;;;;;;;;;20.55;55.15;99370.78;10324873;28;829;-65
2023/07/20 21:49:38;;;;;;;;;;;;;;;20.56;55.18;99371.66;10324765;28;897;-65
2023/07/20 21:54:33;;;;;;;;;;;;;;;20.55;55.15;99372.59;10331564;28;1947;-65
2023/07/20 21:59:29;;;;;;;;;;;;;;;20.54;55.18;99369.09;10333073;28;873;-65
2023/07/20 22:04:25;;;;;;;;;;;;;;;20.54;55.28;99385.00;10332829;28;913;-65
2023/07/20 22:09:21;;;;;;;;;;;;;;;20.54;55.18;99385.00;10332697;28;822;-65
2023/07/20 22:14:17;;;;;;;;;;;;;;;20.54;55.25;99389.41;10332446;28;1964;-65
2023/07/20 22:19:18;;;;;;;;;;;;;;;20.54;55.31;99400.00;10331103;28;1469;-65
2023/07/20 22:24:14;;;;;;;;;;;;;;;20.54;55.24;99411.47;10331541;28;867;-65
2023/07/20 22:29:10;;;;;;;;;;;;;;;20.54;55.13;99430.00;10331542;28;870;-65
2023/07/20 22:34:06;;;;;;;;;;;;;;;20.54;55.15;99429.13;10330301;28;1984;-65
2023/07/20 22:39:03;;;;;;;;;;;;;;;20.54;55.06;99447.66;10331069;28;813;-65
2023/07/20 22:43:59;;;;;;;;;;;;;;;20.52;55.09;99450.38;10331435;28;923;-65
2023/07/20 22:48:55;;;;;;;;;;;;;;;20.53;54.99;99449.44;10330655;28;833;-65
2023/07/20 22:53:52;;;;;;;;;;;;;;;20.53;55.02;99445.94;10330645;28;1902;-65
2023/07/20 22:58:48;;;;;;;;;;;;;;;20.52;55.05;99446.91;10330709;28;909;-65
2023/07/20 23:03:43;;;;;;;;;;;;;;;20.52;54.96;99444.25;10330737;28;806;-65
2023/07/20 23:08:39;;;;;;;;;;;;;;;20.51;54.99;99434.59;10330393;28;885;-65
2023/07/20 23:13:39;;;;;;;;;;;;;;;20.52;55.05;99428.34;10330004;28;1967;-65
2023/07/20 23:18:35;;;;;;;;;;;;;;;20.50;55.12;99428.44;10330311;28;867;-65
2023/07/20 23:23:31;;;;;;;;;;;;;;;20.51;54.97;99421.34;10329312;28;790;-65
2023/07/20 23:28:27;;;;;;;;;;;;;;;20.50;55.04;99401.13;10329677;28;823;-65
2023/07/20 23:33:23;;;;;;;;;;;;;;;20.50;54.95;99395.81;10329348;28;1140;-65
2023/07/20 23:38:19;;;;;;;;;;;;;;;20.50;54.98;99374.63;10328821;28;1981;-65
2023/07/20 23:43:15;;;;;;;;;;;;;;;20.48;54.98;99358.84;10328539;28;881;-65
2023/07/20 23:48:12;;;;;;;;;;;;;;;20.49;55.09;99357.06;10328373;28;840;-64
2023/07/20 23:53:10;;;;;;;;;;;;;;;20.49;55.06;99357.91;10328198;28;830;-64
2023/07/20 23:58:06;;;;;;;;;;;;;;;20.48;55.05;99345.59;10327853;28;1894;-64
